createdAt,value
2019-03-08T00:00:24.970Z,7.99
2019-03-08T00:04:31.745Z,7.99
2019-03-08T00:08:36.822Z,7.97
2019-03-08T00:12:42.096Z,8.01
2019-03-08T00:16:47.285Z,7.98
2019-03-08T00:21:11.510Z,7.91
2019-03-08T00:25:16.657Z,7.91
2019-03-08T00:29:43.127Z,7.49
2019-03-08T00:33:48.259Z,7.49
2019-03-08T00:37:53.461Z,7.61
2019-03-08T00:41:58.899Z,7.53
2019-03-08T00:46:04.024Z,7.56
2019-03-08T00:54:33.425Z,7.53
2019-03-08T00:58:38.611Z,7.58
2019-03-08T01:07:13.336Z,7.61
2019-03-08T01:11:19.531Z,7.60
2019-03-08T01:15:24.684Z,7.56
2019-03-08T01:19:48.916Z,7.48
2019-03-08T01:23:55.696Z,7.42
2019-03-08T01:28:06.088Z,7.37
2019-03-08T01:32:22.540Z,7.24
2019-03-08T01:36:27.729Z,7.21
2019-03-08T01:40:32.893Z,6.90
2019-03-08T01:44:38.056Z,6.86
2019-03-08T01:49:02.997Z,6.91
2019-03-08T01:53:08.122Z,6.99
2019-03-08T01:57:32.408Z,7.03
2019-03-08T02:01:37.528Z,7.14
2019-03-08T02:06:03.579Z,7.20
2019-03-08T02:15:02.365Z,7.12
2019-03-08T02:19:07.667Z,7.01
2019-03-08T02:23:12.803Z,6.99
2019-03-08T02:27:18.120Z,6.88
2019-03-08T02:31:42.309Z,6.96
2019-03-08T02:35:47.406Z,6.96
2019-03-08T02:39:54.463Z,6.92
2019-03-08T02:43:59.551Z,6.83
2019-03-08T02:48:04.702Z,6.68
2019-03-08T02:52:12.214Z,6.53
2019-03-08T02:56:17.376Z,6.19
2019-03-08T03:00:23.427Z,5.77
2019-03-08T03:04:28.573Z,5.58
2019-03-08T03:08:52.917Z,5.50
2019-03-08T03:12:58.127Z,5.53
2019-03-08T03:17:03.532Z,5.48
2019-03-08T03:21:46.929Z,5.41
2019-03-08T03:26:03.456Z,5.31
2019-03-08T03:30:27.947Z,5.19
2019-03-08T03:34:35.011Z,5.12
2019-03-08T03:38:40.185Z,5.17
2019-03-08T03:42:45.348Z,5.16
2019-03-08T03:46:50.615Z,5.18
2019-03-08T03:50:55.796Z,5.22
2019-03-08T03:55:00.957Z,5.08
2019-03-08T03:59:18.079Z,5.03
2019-03-08T04:03:23.463Z,5.05
2019-03-08T04:07:28.585Z,5.03
2019-03-08T04:11:33.675Z,5.04
2019-03-08T04:15:58.025Z,5.05
2019-03-08T04:20:03.108Z,5.04
2019-03-08T04:24:08.278Z,5.01
2019-03-08T04:28:13.445Z,5.03
2019-03-08T04:32:18.582Z,5.06
2019-03-08T04:36:23.710Z,5.08
2019-03-08T04:40:29.781Z,5.05
2019-03-08T04:44:40.633Z,5.13
2019-03-08T04:48:45.870Z,5.08
2019-03-08T04:52:50.977Z,5.08
2019-03-08T04:57:09.256Z,5.08
2019-03-08T05:01:26.821Z,5.04
2019-03-08T05:05:31.910Z,5.03
2019-03-08T05:09:37.087Z,5.05
2019-03-08T05:13:42.408Z,5.07
2019-03-08T05:17:47.590Z,5.06
2019-03-08T05:21:53.479Z,5.09
2019-03-08T05:25:58.751Z,5.14
2019-03-08T05:34:42.756Z,5.05
2019-03-08T05:38:47.971Z,5.08
2019-03-08T05:42:53.166Z,5.02
2019-03-08T05:51:15.528Z,4.90
2019-03-08T05:55:20.793Z,4.88
2019-03-08T05:59:45.521Z,4.93
2019-03-08T06:03:57.100Z,4.95
2019-03-08T06:18:12.294Z,4.95
2019-03-08T06:26:48.337Z,5.08
2019-03-08T06:30:55.213Z,5.11
2019-03-08T06:35:00.467Z,5.14
2019-03-08T06:39:08.416Z,5.14
2019-03-08T06:43:13.666Z,5.15
2019-03-08T06:47:37.846Z,5.21
2019-03-08T06:51:43.198Z,5.27
2019-03-08T06:55:48.315Z,5.30
2019-03-08T07:00:32.704Z,5.36
2019-03-08T07:13:45.104Z,5.50
2019-03-08T07:17:50.348Z,5.53
2019-03-08T07:21:59.403Z,5.57
2019-03-08T07:26:14.878Z,5.60
2019-03-08T07:30:39.116Z,5.60
2019-03-08T07:35:03.257Z,5.68
2019-03-08T07:44:09.999Z,5.64
2019-03-08T07:48:53.151Z,5.65
2019-03-08T07:53:17.333Z,5.70
2019-03-08T07:57:32.737Z,5.75
2019-03-08T08:01:47.876Z,5.93
2019-03-08T08:06:11.998Z,6.05
2019-03-08T08:10:36.309Z,6.12
2019-03-08T08:15:00.584Z,6.06
2019-03-08T08:19:15.717Z,6.14
2019-03-08T08:28:02.755Z,6.36
2019-03-08T08:32:26.906Z,6.43
2019-03-08T08:36:51.209Z,6.51
2019-03-08T08:41:05.674Z,6.63
2019-03-08T08:45:18.326Z,6.64
2019-03-08T08:49:54.050Z,6.49
2019-03-08T08:54:10.737Z,6.83
2019-03-08T08:58:28.132Z,7.31
2019-03-08T09:02:52.312Z,7.63
2019-03-08T09:07:16.303Z,7.61
2019-03-08T09:11:45.915Z,7.49
2019-03-08T09:16:07.176Z,7.23
2019-03-08T09:20:31.386Z,7.12
2019-03-08T09:24:42.065Z,7.47
2019-03-08T09:29:06.291Z,7.79
2019-03-08T09:33:30.460Z,8.10
2019-03-08T09:38:15.284Z,7.91
2019-03-08T09:42:39.510Z,7.56
2019-03-08T09:47:03.682Z,7.54
2019-03-08T09:51:28.056Z,7.28
2019-03-08T09:55:39.125Z,7.56
2019-03-08T10:00:03.263Z,8.23
2019-03-08T10:04:24.009Z,8.09
2019-03-08T10:13:06.292Z,8.29
2019-03-08T10:17:49.428Z,8.09
2019-03-08T10:22:03.794Z,7.82
2019-03-08T10:26:14.319Z,7.91
2019-03-08T10:30:38.529Z,7.74
2019-03-08T10:35:02.797Z,7.98
2019-03-08T10:43:52.688Z,8.40
2019-03-08T10:48:16.827Z,8.59
2019-03-08T10:52:41.452Z,8.12
2019-03-08T10:57:05.630Z,8.39
2019-03-08T11:01:29.783Z,9.16
2019-03-08T11:05:53.923Z,9.85
2019-03-08T11:10:06.369Z,9.95
2019-03-08T11:14:30.493Z,9.28
2019-03-08T11:18:54.142Z,8.80
2019-03-08T11:23:18.293Z,9.04
2019-03-08T11:27:30.191Z,9.21
2019-03-08T11:36:51.841Z,9.42
2019-03-08T11:41:16.873Z,9.74
2019-03-08T11:45:41.286Z,10.38
2019-03-08T11:54:54.796Z,10.93
2019-03-08T11:59:17.623Z,11.42
2019-03-08T12:04:00.794Z,11.34
2019-03-08T12:08:25.087Z,11.01
2019-03-08T12:12:49.341Z,11.28
2019-03-08T12:17:13.904Z,11.01
2019-03-08T12:21:57.089Z,10.94
2019-03-08T12:26:21.259Z,10.12
2019-03-08T12:30:54.525Z,10.52
2019-03-08T12:35:18.594Z,10.05
2019-03-08T12:39:33.764Z,9.82
2019-03-08T12:43:58.086Z,9.55
2019-03-08T12:48:24.079Z,9.78
2019-03-08T12:53:08.608Z,10.19
2019-03-08T12:57:33.329Z,10.11
2019-03-08T13:01:44.097Z,10.09
2019-03-08T13:06:08.219Z,9.88
2019-03-08T13:10:14.054Z,10.24
2019-03-08T13:14:19.498Z,10.33
2019-03-08T13:18:24.725Z,10.20
2019-03-08T13:22:29.879Z,10.66
2019-03-08T13:26:35.398Z,11.02
2019-03-08T13:30:59.835Z,10.37
2019-03-08T13:35:05.044Z,10.05
2019-03-08T13:39:29.283Z,10.06
2019-03-08T13:43:34.857Z,9.96
2019-03-08T13:47:41.690Z,10.42
2019-03-08T13:51:46.815Z,11.44
2019-03-08T13:56:10.961Z,10.89
2019-03-08T14:00:16.715Z,10.58
2019-03-08T14:04:21.875Z,10.61
2019-03-08T14:08:45.957Z,10.47
2019-03-08T14:17:20.975Z,10.58
2019-03-08T14:21:26.129Z,12.28
2019-03-08T14:25:31.349Z,12.68
2019-03-08T14:29:36.515Z,12.10
2019-03-08T14:33:41.727Z,12.89
2019-03-08T14:47:11.362Z,12.21
2019-03-08T14:51:16.538Z,11.95
2019-03-08T14:55:22.844Z,12.31
2019-03-08T14:59:38.132Z,10.91
2019-03-08T15:03:44.034Z,10.79
2019-03-08T15:08:09.259Z,12.72
2019-03-08T15:12:16.741Z,14.68
2019-03-08T15:16:40.353Z,13.66
2019-03-08T15:25:56.815Z,13.43
2019-03-08T15:30:02.174Z,13.37
2019-03-08T15:34:21.326Z,13.27
2019-03-08T15:38:26.323Z,13.13
2019-03-08T15:47:01.860Z,11.42
2019-03-08T15:51:07.009Z,10.65
2019-03-08T16:00:09.994Z,10.69
2019-03-08T16:08:45.131Z,10.35
2019-03-08T16:12:50.613Z,10.35
2019-03-08T16:21:34.515Z,10.19
2019-03-08T16:25:41.168Z,10.12
2019-03-08T16:29:51.914Z,9.98
2019-03-08T16:34:09.427Z,9.91
2019-03-08T16:38:16.828Z,9.73
2019-03-08T16:43:03.746Z,9.85
2019-03-08T16:47:21.022Z,9.67
2019-03-08T16:51:45.179Z,9.69
2019-03-08T16:56:07.614Z,9.66
2019-03-08T17:00:32.246Z,9.32
2019-03-08T17:05:15.437Z,8.34
2019-03-08T17:09:58.800Z,8.02
2019-03-08T17:14:25.678Z,7.93
2019-03-08T17:18:44.812Z,7.97
2019-03-08T17:23:08.956Z,8.00
2019-03-08T17:27:25.043Z,7.94
2019-03-08T17:31:40.167Z,7.99
2019-03-08T17:36:04.266Z,8.05
2019-03-08T17:40:20.476Z,8.05
2019-03-08T17:45:03.626Z,8.20
2019-03-08T17:49:47.946Z,8.01
2019-03-08T17:54:12.308Z,7.96
2019-03-08T17:58:39.308Z,7.93
2019-03-08T18:03:03.657Z,7.96
2019-03-08T18:07:27.810Z,7.94
2019-03-08T18:11:52.041Z,7.99
2019-03-08T18:16:17.108Z,8.02
2019-03-08T18:21:23.075Z,8.04
2019-03-08T18:25:53.524Z,7.99
2019-03-08T18:30:17.745Z,8.08
2019-03-08T18:34:59.722Z,8.05
2019-03-08T18:39:25.196Z,8.05
2019-03-08T18:43:49.361Z,8.12
2019-03-08T18:48:13.812Z,8.21
2019-03-08T18:52:38.493Z,8.21
2019-03-08T18:57:02.990Z,8.21
2019-03-08T19:01:29.328Z,8.28
2019-03-08T19:06:13.349Z,8.32
2019-03-08T19:10:28.105Z,8.39
2019-03-08T19:15:00.939Z,8.47
2019-03-08T19:23:42.604Z,8.33
2019-03-08T19:27:53.122Z,8.35
2019-03-08T19:32:17.260Z,8.32
2019-03-08T19:36:40.266Z,8.22
2019-03-08T19:41:06.752Z,8.23
2019-03-08T19:45:31.162Z,8.16
2019-03-08T19:49:55.434Z,8.18
2019-03-08T19:54:09.090Z,8.19
2019-03-08T19:58:33.607Z,8.11
2019-03-08T20:02:57.714Z,8.04
2019-03-08T20:07:41.040Z,7.93
2019-03-08T20:12:05.260Z,7.93
2019-03-08T20:16:24.890Z,7.97
2019-03-08T20:30:03.881Z,8.01
2019-03-08T20:34:28.124Z,7.95
2019-03-08T20:38:53.916Z,7.86
2019-03-08T20:43:32.371Z,7.89
2019-03-08T20:47:38.174Z,7.90
2019-03-08T20:51:43.393Z,7.95
2019-03-08T20:55:48.651Z,7.91
2019-03-08T20:59:53.796Z,7.91
2019-03-08T21:03:59.246Z,7.93
2019-03-08T21:08:07.598Z,7.85
2019-03-08T21:12:12.797Z,7.77
2019-03-08T21:16:17.978Z,7.96
2019-03-08T21:20:23.185Z,7.96
2019-03-08T21:24:28.360Z,7.97
2019-03-08T21:28:33.473Z,7.96
2019-03-08T21:32:38.865Z,8.00
2019-03-08T21:41:13.516Z,8.09
2019-03-08T21:45:18.804Z,8.08
2019-03-08T21:49:24.116Z,8.07
2019-03-08T21:53:29.282Z,8.22
2019-03-08T21:57:34.464Z,8.30
2019-03-08T22:01:39.563Z,8.35
2019-03-08T22:05:46.360Z,8.24
2019-03-08T22:14:12.559Z,8.38
2019-03-08T22:18:17.669Z,7.99
2019-03-08T22:26:39.895Z,7.78
2019-03-08T22:30:45.083Z,7.68
2019-03-08T22:35:09.337Z,7.81
2019-03-08T22:39:14.372Z,7.91
2019-03-08T22:43:25.232Z,7.86
2019-03-08T22:47:30.361Z,7.75
2019-03-08T22:51:35.500Z,7.77
2019-03-08T22:55:40.664Z,7.70
2019-03-08T23:00:04.766Z,7.76
2019-03-08T23:08:30.646Z,7.80
2019-03-08T23:12:36.254Z,7.92
2019-03-08T23:16:41.849Z,7.96
2019-03-08T23:20:47.052Z,7.96
2019-03-08T23:24:52.309Z,8.14
2019-03-08T23:29:16.522Z,8.19
2019-03-08T23:33:21.712Z,8.27
2019-03-08T23:37:27.385Z,8.39
2019-03-08T23:41:32.879Z,8.40
2019-03-08T23:45:38.188Z,8.46
2019-03-08T23:49:50.840Z,8.53
2019-03-08T23:53:56.047Z,8.50
2019-03-08T23:58:01.211Z,8.55
